Time;durP1;ratioP1;P1;durP2;ratioP2;P2;SDS_P1;SDS_P2;PMS_P1;PMS_P2;Temp;Humidity;BMP_temperature;BMP_pressure;BME280_temperature;BME280_humidity;BME280_pressure;Samples;Min_cycle;Max_cycle;Signal;HPM_P1;HPM_P2
2021/04/19 00:01:47;;;;;;;1.60;1.60;;;6.90;98.00;;;;;;5071563;28;20452;-72
2021/04/19 00:04:14;;;;;;;1.63;1.57;;;6.70;98.00;;;;;;5068658;28;20481;-72
2021/04/19 00:06:41;;;;;;;1.80;1.40;;;6.60;98.00;;;;;;5071680;28;20453;-72
2021/04/19 00:09:08;;;;;;;3.27;2.00;;;6.60;98.00;;;;;;5068707;28;20972;-74
2021/04/19 00:11:35;;;;;;;2.43;1.50;;;6.60;98.00;;;;;;5071439;28;20839;-74
2021/04/19 00:14:01;;;;;;;2.03;1.30;;;6.70;98.00;;;;;;5068465;28;20470;-75
2021/04/19 00:16:28;;;;;;;1.50;1.30;;;6.60;98.00;;;;;;5071721;28;20450;-74
2021/04/19 00:18:55;;;;;;;1.60;1.10;;;6.60;98.00;;;;;;5051050;28;20999;-74
2021/04/19 00:21:22;;;;;;;1.30;1.20;;;6.80;98.00;;;;;;5071672;28;20471;-74
2021/04/19 00:23:48;;;;;;;2.43;1.30;;;6.90;98.00;;;;;;5068949;28;20853;-74
2021/04/19 00:26:15;;;;;;;1.70;1.50;;;6.90;98.00;;;;;;5070883;28;20449;-74
2021/04/19 00:28:42;;;;;;;1.20;1.17;;;6.80;98.00;;;;;;5066734;28;20452;-74
2021/04/19 00:31:09;;;;;;;1.90;1.47;;;6.80;98.00;;;;;;5071636;28;20932;-74
2021/04/19 00:33:35;;;;;;;3.23;1.87;;;6.70;98.00;;;;;;5068809;28;20452;-74
2021/04/19 00:36:02;;;;;;;1.30;1.30;;;6.60;98.00;;;;;;5071264;28;20453;-74
2021/04/19 00:38:29;;;;;;;1.40;1.10;;;6.70;98.00;;;;;;5068878;28;20478;-72
2021/04/19 00:40:58;;;;;;;1.40;1.40;;;6.70;98.00;;;;;;5071294;28;20460;-72
2021/04/19 00:43:25;;;;;;;1.80;1.53;;;6.60;98.00;;;;;;5068601;28;20846;-72
2021/04/19 00:46:01;;;;;;;1.40;1.27;;;6.70;98.00;;;;;;5071273;28;20510;-72
2021/04/19 00:48:28;;;;;;;2.13;1.50;;;6.70;98.00;;;;;;5067624;28;20455;-72
2021/04/19 00:50:55;;;;;;;1.87;1.40;;;6.70;98.00;;;;;;5071130;28;20461;-72
2021/04/19 00:53:23;;;;;;;1.80;1.27;;;6.50;98.00;;;;;;5068285;28;20534;-72
2021/04/19 00:55:52;;;;;;;2.50;1.50;;;6.50;98.00;;;;;;5070988;28;20451;-72
2021/04/19 00:58:22;;;;;;;1.60;1.37;;;6.30;98.00;;;;;;5066969;28;20485;-72
2021/04/19 01:00:49;;;;;;;1.50;1.40;;;6.30;98.00;;;;;;5071032;28;20480;-74
2021/04/19 01:03:16;;;;;;;1.30;1.30;;;6.30;98.00;;;;;;5067365;28;20444;-74
2021/04/19 01:05:44;;;;;;;1.30;1.10;;;6.30;98.00;;;;;;5071822;28;20463;-74
2021/04/19 01:08:11;;;;;;;4.23;2.27;;;6.30;98.00;;;;;;5070536;28;20465;-74
2021/04/19 01:10:38;;;;;;;1.50;1.23;;;6.40;98.00;;;;;;5074032;28;20457;-72
2021/04/19 01:13:06;;;;;;;1.40;1.37;;;6.30;98.00;;;;;;5072479;28;20533;-74
2021/04/19 01:15:33;;;;;;;1.60;1.60;;;6.10;98.00;;;;;;5075243;28;20964;-74
2021/04/19 01:18:00;;;;;;;2.90;2.43;;;5.90;98.00;;;;;;5071976;28;20983;-74
2021/04/19 01:20:29;;;;;;;1.30;1.20;;;5.80;98.00;;;;;;5074857;28;20455;-74
2021/04/19 01:22:56;;;;;;;1.83;1.30;;;5.70;98.00;;;;;;5072498;28;20492;-74
2021/04/19 01:25:25;;;;;;;1.90;1.83;;;5.60;98.00;;;;;;5074715;28;20466;-74
2021/04/19 01:27:52;;;;;;;1.20;1.10;;;5.40;98.00;;;;;;5071963;28;20978;-74
2021/04/19 01:30:23;;;;;;;2.47;1.57;;;5.50;98.00;;;;;;5074634;28;20458;-74
2021/04/19 01:32:49;;;;;;;2.30;1.60;;;5.40;98.00;;;;;;5071923;28;20930;-74
2021/04/19 01:35:17;;;;;;;2.43;1.93;;;5.40;98.00;;;;;;5074397;28;20462;-74
2021/04/19 01:37:44;;;;;;;2.70;2.53;;;5.30;98.00;;;;;;5071882;28;20455;-74
2021/04/19 01:40:14;;;;;;;1.20;1.13;;;5.30;98.00;;;;;;5074302;28;20507;-74
2021/04/19 01:42:40;;;;;;;2.60;1.67;;;5.30;98.00;;;;;;5071572;28;20467;-74
2021/04/19 01:45:08;;;;;;;3.77;2.07;;;5.20;98.00;;;;;;5074295;28;20459;-74
2021/04/19 01:47:36;;;;;;;4.80;2.07;;;5.20;98.00;;;;;;5071753;28;20464;-73
2021/04/19 01:50:10;;;;;;;1.40;1.30;;;5.20;98.00;;;;;;5074174;28;20459;-74
2021/04/19 01:52:37;;;;;;;5.53;1.73;;;5.20;98.00;;;;;;5071094;28;20456;-74
2021/04/19 01:55:06;;;;;;;1.70;1.30;;;5.10;98.00;;;;;;5074080;28;20452;-74
2021/04/19 01:57:34;;;;;;;1.40;1.40;;;5.10;98.00;;;;;;5071700;28;20906;-74
2021/04/19 02:00:01;;;;;;;1.70;1.40;;;5.00;98.00;;;;;;5074182;28;20853;-74
2021/04/19 02:02:48;;;;;;;1.40;1.27;;;5.00;98.00;;;;;;5070641;28;20515;-74
2021/04/19 02:05:23;;;;;;;1.47;1.20;;;4.90;98.00;;;;;;5074042;28;20458;-74
2021/04/19 02:07:55;;;;;;;1.40;1.37;;;4.90;98.00;;;;;;5071361;28;20462;-74
2021/04/19 02:10:28;;;;;;;1.40;1.27;;;4.90;98.00;;;;;;5073205;28;20456;-74
2021/04/19 02:13:00;;;;;;;1.87;1.53;;;4.90;98.00;;;;;;5070461;28;20456;-74
2021/04/19 02:15:38;;;;;;;2.53;1.77;;;4.90;98.00;;;;;;5073273;28;20586;-74
2021/04/19 02:18:12;;;;;;;2.03;1.47;;;5.00;98.00;;;;;;5071166;28;20463;-74
2021/04/19 02:20:46;;;;;;;1.50;1.40;;;5.10;98.00;;;;;;5072164;28;20860;-74
2021/04/19 02:23:20;;;;;;;1.50;1.47;;;5.20;98.00;;;;;;5070437;28;20464;-74
2021/04/19 02:25:49;;;;;;;1.70;1.60;;;5.20;98.00;;;;;;5073645;28;20494;-74
2021/04/19 02:28:28;;;;;;;1.30;1.23;;;5.30;98.00;;;;;;5070828;28;20554;-74
2021/04/19 02:30:59;;;;;;;1.30;1.10;;;5.50;98.00;;;;;;5073536;28;20451;-74
2021/04/19 02:33:31;;;;;;;1.77;1.70;;;5.60;98.00;;;;;;5070852;28;20496;-74
2021/04/19 02:35:58;;;;;;;1.90;1.77;;;5.70;98.00;;;;;;5072251;28;20467;-74
2021/04/19 02:38:30;;;;;;;2.07;1.70;;;5.70;98.00;;;;;;5070406;28;20909;-74
2021/04/19 02:40:59;;;;;;;1.27;1.27;;;5.80;98.00;;;;;;5073303;28;20462;-74
2021/04/19 02:43:28;;;;;;;2.07;1.83;;;5.90;98.00;;;;;;5070631;28;20467;-74
2021/04/19 02:45:55;;;;;;;1.70;1.53;;;5.70;98.00;;;;;;5071896;28;20454;-74
2021/04/19 02:48:24;;;;;;;1.80;1.60;;;5.70;98.00;;;;;;5069144;28;20482;-74
2021/04/19 02:50:51;;;;;;;1.20;1.00;;;5.70;98.00;;;;;;5073353;28;20464;-74
2021/04/19 02:53:19;;;;;;;1.20;1.00;;;5.80;98.00;;;;;;5070888;28;20824;-74
2021/04/19 02:55:47;;;;;;;2.03;1.50;;;5.80;98.00;;;;;;5073255;28;20466;-74
2021/04/19 02:58:14;;;;;;;3.00;2.00;;;5.70;98.00;;;;;;5069048;28;20460;-74
2021/04/19 03:00:47;;;;;;;1.80;1.43;;;5.60;98.00;;;;;;5072864;28;20474;-74
2021/04/19 03:03:21;;;;;;;1.30;1.13;;;5.60;98.00;;;;;;5070364;28;20561;-74
2021/04/19 03:05:48;;;;;;;1.50;1.40;;;5.60;98.00;;;;;;5071530;28;21083;-74
2021/04/19 03:08:18;;;;;;;1.70;1.30;;;5.70;98.00;;;;;;5070083;28;20510;-74
2021/04/19 03:10:55;;;;;;;1.40;1.30;;;5.80;98.00;;;;;;5072669;28;20458;-74
2021/04/19 03:13:24;;;;;;;1.73;1.40;;;5.90;98.00;;;;;;5070341;28;20483;-74
2021/04/19 03:15:55;;;;;;;1.43;1.40;;;5.90;98.00;;;;;;5072568;28;21027;-74
2021/04/19 03:18:24;;;;;;;2.83;1.70;;;5.90;98.00;;;;;;5069848;28;20485;-74
2021/04/19 03:21:08;;;;;;;3.83;1.83;;;6.10;98.00;;;;;;5072392;28;20938;-74
2021/04/19 03:23:38;;;;;;;2.60;1.83;;;6.30;98.00;;;;;;5069790;28;20565;-74
2021/04/19 03:26:06;;;;;;;1.20;1.10;;;6.00;98.00;;;;;;5072112;28;20510;-74
2021/04/19 03:28:34;;;;;;;2.13;1.87;;;5.90;98.00;;;;;;5069235;28;20802;-74
2021/04/19 03:31:06;;;;;;;1.77;1.30;;;5.90;98.00;;;;;;5070842;28;20517;-74
2021/04/19 03:33:34;;;;;;;1.90;1.50;;;5.80;98.00;;;;;;5069418;28;20806;-74
2021/04/19 03:36:02;;;;;;;1.93;1.57;;;5.80;98.00;;;;;;5071896;28;20455;-74
2021/04/19 03:38:31;;;;;;;2.13;1.93;;;5.90;98.00;;;;;;5069615;28;20490;-74
2021/04/19 03:40:58;;;;;;;1.30;1.30;;;5.90;98.00;;;;;;5072041;28;20453;-74
2021/04/19 03:43:26;;;;;;;1.30;1.30;;;6.10;98.00;;;;;;5068508;28;20447;-74
2021/04/19 03:46:02;;;;;;;1.63;1.50;;;6.00;98.00;;;;;;5072277;28;20468;-74
2021/04/19 03:48:30;;;;;;;1.20;1.10;;;5.90;98.00;;;;;;5069467;28;20460;-74
2021/04/19 03:51:02;;;;;;;1.80;1.50;;;5.80;98.00;;;;;;5072262;28;20479;-74
2021/04/19 03:53:31;;;;;;;2.13;1.60;;;5.80;98.00;;;;;;5069124;28;20535;-74
2021/04/19 03:56:00;;;;;;;1.40;1.10;;;5.80;98.00;;;;;;5071869;28;20531;-73
2021/04/19 03:58:28;;;;;;;1.80;1.73;;;5.60;98.00;;;;;;5067899;28;21092;-74
2021/04/19 04:01:00;;;;;;;1.40;1.33;;;5.50;98.00;;;;;;5071813;28;20457;-74
2021/04/19 04:03:27;;;;;;;1.63;1.57;;;5.50;98.00;;;;;;5068657;28;20526;-74
2021/04/19 04:05:55;;;;;;;2.77;1.50;;;5.40;98.00;;;;;;5071716;28;20486;-74
2021/04/19 04:08:22;;;;;;;1.30;1.30;;;5.30;98.00;;;;;;5069075;28;20448;-72
2021/04/19 04:10:50;;;;;;;2.07;1.87;;;5.30;98.00;;;;;;5071516;28;21013;-74
2021/04/19 04:13:19;;;;;;;5.83;2.00;;;5.30;98.00;;;;;;5067812;28;20448;-74
2021/04/19 04:15:52;;;;;;;1.47;1.23;;;5.40;98.00;;;;;;5071425;28;20482;-74
2021/04/19 04:18:19;;;;;;;1.77;1.47;;;5.50;98.00;;;;;;5068988;28;20461;-74
2021/04/19 04:20:47;;;;;;;1.90;1.87;;;5.60;98.00;;;;;;5071155;28;20447;-74
2021/04/19 04:23:15;;;;;;;2.33;1.53;;;5.80;98.00;;;;;;5067419;28;21156;-74
2021/04/19 04:25:41;;;;;;;1.50;1.33;;;5.80;98.00;;;;;;5071202;28;20535;-72
2021/04/19 04:28:09;;;;;;;2.73;2.07;;;5.80;98.00;;;;;;5067011;28;20821;-72
2021/04/19 04:30:36;;;;;;;1.87;1.50;;;5.90;98.00;;;;;;5070962;28;20464;-72
2021/04/19 04:33:04;;;;;;;1.73;1.73;;;5.80;98.00;;;;;;5067230;28;20457;-72
2021/04/19 04:35:30;;;;;;;2.03;1.43;;;5.70;98.00;;;;;;5071065;28;20539;-72
2021/04/19 04:37:58;;;;;;;1.60;1.50;;;5.60;98.00;;;;;;5068545;28;20492;-72
2021/04/19 04:40:25;;;;;;;1.50;1.33;;;5.70;98.00;;;;;;5070431;28;20567;-72
2021/04/19 04:42:57;;;;;;;1.30;1.30;;;5.90;98.00;;;;;;5069297;28;20454;-72
2021/04/19 04:45:24;;;;;;;1.50;1.33;;;5.80;98.00;;;;;;5071426;28;20457;-72
2021/04/19 04:47:58;;;;;;;1.73;1.57;;;5.80;98.00;;;;;;5068867;28;20486;-72
2021/04/19 04:50:32;;;;;;;1.23;1.10;;;5.90;98.00;;;;;;5071287;28;20451;-72
2021/04/19 04:53:04;;;;;;;1.47;1.43;;;5.90;98.00;;;;;;5051668;28;20541;-72
2021/04/19 04:55:33;;;;;;;1.93;1.83;;;5.90;98.00;;;;;;5071004;28;20934;-72
2021/04/19 04:58:01;;;;;;;2.03;1.93;;;5.90;98.00;;;;;;5068165;28;20449;-72
2021/04/19 05:00:28;;;;;;;1.60;1.30;;;6.00;98.00;;;;;;5070673;28;20488;-72
2021/04/19 05:02:56;;;;;;;2.80;1.80;;;6.10;98.00;;;;;;5068560;28;20846;-72
2021/04/19 05:05:23;;;;;;;2.33;1.43;;;6.10;98.00;;;;;;5070888;28;20472;-72
2021/04/19 05:08:03;;;;;;;3.87;2.00;;;5.90;98.00;;;;;;5068065;28;20514;-72
2021/04/19 05:10:31;;;;;;;3.77;2.10;;;5.90;98.00;;;;;;5070322;28;20456;-72
2021/04/19 05:12:58;;;;;;;2.13;1.50;;;5.90;98.00;;;;;;5068701;28;20782;-72
2021/04/19 05:15:24;;;;;;;1.60;1.47;;;6.00;98.00;;;;;;5070761;28;20814;-72
2021/04/19 05:17:50;;;;;;;1.83;1.60;;;6.00;98.00;;;;;;5068485;28;20477;-72
2021/04/19 05:20:19;;;;;;;4.00;1.97;;;6.10;98.00;;;;;;5070542;28;20484;-72
2021/04/19 05:22:46;;;;;;;1.30;1.13;;;6.20;98.00;;;;;;5068327;28;21006;-72
2021/04/19 05:25:13;;;;;;;1.40;1.20;;;6.30;98.00;;;;;;5070737;28;20466;-72
2021/04/19 05:27:42;;;;;;;1.93;1.30;;;6.20;98.00;;;;;;5067852;28;20966;-73
2021/04/19 05:30:10;;;;;;;4.10;2.50;;;6.00;98.00;;;;;;5070731;28;20451;-74
2021/04/19 05:33:06;;;;;;;2.03;1.40;;;5.90;98.00;;;;;;5068183;28;20453;-74
2021/04/19 05:35:34;;;;;;;1.47;1.43;;;5.90;98.00;;;;;;5069830;28;20541;-74
2021/04/19 05:38:01;;;;;;;3.10;1.77;;;5.80;98.00;;;;;;5068186;28;20492;-74
2021/04/19 05:40:30;;;;;;;1.23;1.23;;;5.90;98.00;;;;;;5070882;28;20490;-74
2021/04/19 05:42:58;;;;;;;5.87;1.73;;;6.00;98.00;;;;;;5067720;28;20459;-74
2021/04/19 05:45:26;;;;;;;1.50;1.40;;;6.20;98.00;;;;;;5070443;28;20459;-74
2021/04/19 05:47:53;;;;;;;1.80;1.63;;;6.10;98.00;;;;;;5066645;28;20794;-74
2021/04/19 05:50:22;;;;;;;1.20;1.13;;;6.00;98.00;;;;;;5070488;28;20456;-74
2021/04/19 05:52:52;;;;;;;1.30;1.30;;;6.00;98.00;;;;;;5069834;28;20451;-74
2021/04/19 05:55:21;;;;;;;2.23;1.40;;;6.20;98.00;;;;;;5074042;28;20920;-74
2021/04/19 05:57:55;;;;;;;1.57;1.30;;;6.20;98.00;;;;;;5071411;28;20466;-74
2021/04/19 06:00:28;;;;;;;5.30;2.17;;;6.30;98.00;;;;;;5073748;28;20491;-74
2021/04/19 06:03:00;;;;;;;1.50;1.40;;;6.30;98.00;;;;;;5071291;28;20483;-73
2021/04/19 06:05:31;;;;;;;1.93;1.73;;;6.30;98.00;;;;;;5073869;28;20946;-74
2021/04/19 06:08:07;;;;;;;1.20;1.17;;;6.30;98.00;;;;;;5070185;28;20478;-74
2021/04/19 06:10:40;;;;;;;1.30;1.30;;;6.40;98.00;;;;;;5073816;28;20454;-74
2021/04/19 06:13:09;;;;;;;2.67;1.60;;;6.50;98.00;;;;;;5071114;28;20463;-74
2021/04/19 06:15:37;;;;;;;1.50;1.37;;;6.60;98.00;;;;;;5073639;28;20456;-74
2021/04/19 06:18:03;;;;;;;1.63;1.47;;;6.70;98.00;;;;;;5069949;28;20454;-74
2021/04/19 06:20:31;;;;;;;1.77;1.70;;;6.80;98.00;;;;;;5073792;28;20483;-74
2021/04/19 06:22:58;;;;;;;1.60;1.50;;;6.80;98.00;;;;;;5071002;28;20472;-73
2021/04/19 06:25:25;;;;;;;2.63;1.93;;;6.80;98.00;;;;;;5073521;28;20461;-74
2021/04/19 06:28:00;;;;;;;1.87;1.60;;;6.80;98.00;;;;;;5071084;28;20460;-74
2021/04/19 06:30:30;;;;;;;3.87;2.20;;;6.80;98.00;;;;;;5073464;28;20452;-74
2021/04/19 06:32:59;;;;;;;6.00;2.30;;;6.90;98.00;;;;;;5071091;28;20462;-74
2021/04/19 06:35:26;;;;;;;2.90;2.10;;;6.70;98.00;;;;;;5073519;28;20952;-74
2021/04/19 06:37:56;;;;;;;2.70;2.10;;;6.70;98.00;;;;;;5070631;28;20450;-74
2021/04/19 06:40:22;;;;;;;1.70;1.50;;;6.60;98.00;;;;;;5073247;28;20572;-74
2021/04/19 06:42:49;;;;;;;2.60;1.40;;;6.70;98.00;;;;;;5070440;28;20453;-74
2021/04/19 06:45:16;;;;;;;4.53;2.17;;;6.70;98.00;;;;;;5073187;28;20811;-73
2021/04/19 06:47:43;;;;;;;1.40;1.30;;;6.70;98.00;;;;;;5070783;28;20462;-74
2021/04/19 06:50:12;;;;;;;1.87;1.50;;;6.90;98.00;;;;;;5073120;28;20455;-73
2021/04/19 06:52:39;;;;;;;2.87;2.20;;;7.00;98.00;;;;;;5072589;28;20470;-74
2021/04/19 06:55:07;;;;;;;9.50;3.07;;;6.90;98.00;;;;;;5072131;28;20449;-74
2021/04/19 06:57:39;;;;;;;3.53;1.87;;;6.80;98.00;;;;;;5072925;28;20527;-73
2021/04/19 07:00:08;;;;;;;3.97;2.30;;;6.90;98.00;;;;;;5070549;28;20530;-74
2021/04/19 07:02:43;;;;;;;3.93;2.13;;;6.90;98.00;;;;;;5072797;28;20463;-74
2021/04/19 07:05:13;;;;;;;1.70;1.60;;;6.80;98.00;;;;;;5072141;28;20783;-74
2021/04/19 07:07:49;;;;;;;1.40;1.20;;;7.00;98.00;;;;;;5072841;28;20468;-76
2021/04/19 07:10:17;;;;;;;5.47;2.90;;;7.00;98.00;;;;;;5072933;28;20452;-76
2021/04/19 07:12:45;;;;;;;2.43;1.50;;;7.20;98.00;;;;;;5071040;28;20978;-75
2021/04/19 07:15:13;;;;;;;1.53;1.43;;;7.30;98.00;;;;;;5072841;28;20476;-74
2021/04/19 07:17:40;;;;;;;2.03;1.70;;;7.30;98.00;;;;;;5072958;28;20885;-74
2021/04/19 07:20:09;;;;;;;2.43;2.13;;;7.40;98.00;;;;;;5069720;28;20507;-74
2021/04/19 07:22:38;;;;;;;1.57;1.53;;;7.50;98.00;;;;;;5072812;28;20463;-74
2021/04/19 07:25:06;;;;;;;1.80;1.63;;;7.40;98.00;;;;;;5069704;28;20466;-74
2021/04/19 07:27:34;;;;;;;1.50;1.30;;;7.40;98.00;;;;;;5072263;28;20960;-73
2021/04/19 07:30:05;;;;;;;4.00;1.77;;;7.40;98.00;;;;;;5068455;28;20455;-76
2021/04/19 07:32:36;;;;;;;1.63;1.30;;;7.30;98.00;;;;;;5072124;28;20938;-73
2021/04/19 07:35:05;;;;;;;1.53;1.50;;;7.40;98.00;;;;;;5069510;28;20479;-75
2021/04/19 07:37:32;;;;;;;1.93;1.87;;;7.40;98.00;;;;;;5070623;28;20445;-74
2021/04/19 07:40:02;;;;;;;2.63;2.50;;;7.40;98.00;;;;;;5069455;28;20580;-76
2021/04/19 07:42:29;;;;;;;2.07;1.77;;;7.30;98.00;;;;;;5071920;28;20515;-75
2021/04/19 07:44:56;;;;;;;2.17;1.70;;;7.40;98.00;;;;;;5068981;28;20459;-74
2021/04/19 07:47:32;;;;;;;4.97;1.97;;;7.40;98.00;;;;;;5071832;28;20453;-73
2021/04/19 07:50:06;;;;;;;2.40;1.90;;;7.40;98.00;;;;;;5067379;28;20544;-73
2021/04/19 07:52:36;;;;;;;3.30;2.10;;;7.70;98.00;;;;;;5070578;28;20548;-74
2021/04/19 07:55:21;;;;;;;2.73;2.20;;;7.90;98.00;;;;;;5068277;28;20520;-74
2021/04/19 07:57:50;;;;;;;1.40;1.30;;;8.70;98.00;;;;;;5070221;28;20459;-73
2021/04/19 08:00:33;;;;;;;2.43;1.90;;;9.00;98.00;;;;;;5071173;28;20487;-74
2021/04/19 08:03:05;;;;;;;2.17;1.67;;;9.00;98.00;;;;;;5064979;28;20528;-76
2021/04/19 08:05:37;;;;;;;1.73;1.57;;;8.90;98.00;;;;;;5070167;28;20932;-73
2021/04/19 08:08:05;;;;;;;2.13;1.50;;;8.90;98.00;;;;;;5069431;28;20465;-73
2021/04/19 08:10:38;;;;;;;1.60;1.50;;;8.80;98.00;;;;;;5071147;28;20468;-74
2021/04/19 08:13:08;;;;;;;2.00;1.93;;;8.80;98.00;;;;;;5067521;28;20440;-72
2021/04/19 08:15:37;;;;;;;7.40;2.17;;;8.70;98.00;;;;;;5069990;28;20499;-72
2021/04/19 08:18:07;;;;;;;1.40;1.10;;;8.50;98.00;;;;;;5068564;28;20459;-71
2021/04/19 08:20:34;;;;;;;1.67;1.60;;;8.50;98.00;;;;;;5071119;28;20556;-73
2021/04/19 08:23:13;;;;;;;1.20;1.00;;;8.50;98.00;;;;;;5068373;28;20842;-72
2021/04/19 08:25:43;;;;;;;2.43;1.40;;;8.60;98.00;;;;;;5070968;28;20451;-74
2021/04/19 08:28:13;;;;;;;1.37;1.27;;;8.60;98.00;;;;;;5068291;28;20454;-73
2021/04/19 08:30:40;;;;;;;2.20;2.03;;;8.60;98.00;;;;;;5071072;28;20521;-74
2021/04/19 08:33:07;;;;;;;3.17;1.63;;;8.60;98.00;;;;;;5068031;28;20467;-74
2021/04/19 08:35:34;;;;;;;1.67;1.43;;;8.50;98.00;;;;;;5070827;28;20462;-74
2021/04/19 08:38:06;;;;;;;3.90;2.60;;;8.40;98.00;;;;;;5067100;28;20542;-72
2021/04/19 08:40:35;;;;;;;2.43;1.67;;;8.30;98.00;;;;;;5070642;28;20492;-73
2021/04/19 08:43:03;;;;;;;1.60;1.47;;;8.30;98.00;;;;;;5067813;28;20825;-75
2021/04/19 08:45:30;;;;;;;2.03;1.37;;;8.40;98.00;;;;;;5070635;28;20802;-74
2021/04/19 08:48:00;;;;;;;5.13;2.80;;;8.60;98.00;;;;;;5068323;28;21053;-75
2021/04/19 08:50:27;;;;;;;1.77;1.70;;;9.00;98.00;;;;;;5070785;28;20448;-74
2021/04/19 08:52:58;;;;;;;2.07;1.50;;;9.10;98.00;;;;;;5068645;28;20453;-75
2021/04/19 08:55:25;;;;;;;3.87;2.30;;;9.10;98.00;;;;;;5070942;28;20862;-75
2021/04/19 08:57:53;;;;;;;2.03;1.63;;;9.10;98.00;;;;;;5070019;28;20487;-73
2021/04/19 09:00:23;;;;;;;1.50;1.43;;;9.10;98.00;;;;;;5069526;28;20541;-74
2021/04/19 09:02:50;;;;;;;1.70;1.57;;;9.20;98.00;;;;;;5070440;28;20451;-74
2021/04/19 09:05:18;;;;;;;2.30;2.07;;;9.20;98.00;;;;;;5069030;28;21016;-73
2021/04/19 09:07:46;;;;;;;1.70;1.63;;;9.00;98.00;;;;;;5070680;28;20464;-73
2021/04/19 09:10:16;;;;;;;1.90;1.83;;;9.10;98.00;;;;;;5067868;28;21103;-73
2021/04/19 09:12:42;;;;;;;6.80;2.00;;;9.00;98.00;;;;;;5068404;28;20474;-73
2021/04/19 09:15:29;;;;;;;3.07;2.00;;;9.00;98.00;;;;;;5068311;28;20460;-74
2021/04/19 09:18:18;;;;;;;1.30;1.20;;;9.00;98.00;;;;;;5068645;28;20943;-74
2021/04/19 09:20:50;;;;;;;2.60;2.37;;;9.00;98.00;;;;;;5070469;28;21009;-75
2021/04/19 09:23:22;;;;;;;3.40;2.33;;;9.00;98.00;;;;;;5067346;28;20457;-75
2021/04/19 09:25:50;;;;;;;1.70;1.63;;;8.90;98.00;;;;;;5070019;28;20448;-74
2021/04/19 09:28:56;;;;;;;1.80;1.43;;;8.90;98.00;;;;;;5070828;28;20459;-75
2021/04/19 09:32:03;;;;;;;2.80;1.77;;;8.80;98.00;;;;;;5074348;28;20457;-75
2021/04/19 09:34:41;;;;;;;2.80;1.87;;;8.70;98.00;;;;;;5070579;28;20494;-74
2021/04/19 09:37:08;;;;;;;2.43;1.67;;;8.80;98.00;;;;;;5074000;28;20842;-74
2021/04/19 09:39:45;;;;;;;1.20;1.10;;;9.00;98.00;;;;;;5071175;28;20816;-74
2021/04/19 09:42:13;;;;;;;1.27;1.10;;;9.30;98.00;;;;;;5073561;28;20456;-73
2021/04/19 09:44:50;;;;;;;1.80;1.40;;;10.00;98.00;;;;;;5071025;28;20464;-75
2021/04/19 09:47:48;;;;;;;1.80;1.43;;;10.70;98.00;;;;;;5073723;28;20521;-70
2021/04/19 09:50:16;;;;;;;2.93;1.90;;;11.30;98.00;;;;;;4989812;28;20457;-72
2021/04/19 09:52:47;;;;;;;1.87;1.73;;;11.60;98.00;;;;;;5055883;28;20462;-72
2021/04/19 09:55:13;;;;;;;2.40;1.87;;;11.90;98.00;;;;;;5071147;28;20487;-72
2021/04/19 09:57:40;;;;;;;5.40;2.50;;;12.20;98.00;;;;;;5073980;28;20459;-73
2021/04/19 10:00:08;;;;;;;3.43;2.37;;;12.20;98.00;;;;;;5071020;28;20518;-74
2021/04/19 10:02:36;;;;;;;1.80;1.40;;;12.40;98.00;;;;;;5073283;28;20459;-72
2021/04/19 10:05:05;;;;;;;3.37;1.53;;;12.70;98.00;;;;;;5070997;28;20457;-71
2021/04/19 10:07:33;;;;;;;1.90;1.50;;;13.00;98.00;;;;;;5073534;28;20458;-72
2021/04/19 10:10:03;;;;;;;1.50;1.30;;;13.20;98.00;;;;;;5070735;28;20540;-72
2021/04/19 10:12:41;;;;;;;2.13;1.63;;;13.40;98.00;;;;;;5073195;28;21039;-70
2021/04/19 10:15:16;;;;;;;2.10;1.60;;;13.30;98.00;;;;;;5071200;28;20466;-70
2021/04/19 10:17:44;;;;;;;1.20;1.10;;;13.50;98.00;;;;;;5073373;28;20467;-70
2021/04/19 10:20:22;;;;;;;1.40;1.33;;;13.70;98.00;;;;;;5070424;28;20532;-74
2021/04/19 10:23:06;;;;;;;2.07;1.77;;;13.90;98.00;;;;;;5072935;28;20507;-73
2021/04/19 10:25:32;;;;;;;1.47;1.40;;;14.10;98.00;;;;;;5073327;28;20459;-75
2021/04/19 10:27:59;;;;;;;1.60;1.57;;;14.00;97.30;;;;;;5073025;28;20465;-72
2021/04/19 10:30:27;;;;;;;3.67;2.50;;;14.00;97.00;;;;;;5071250;28;20868;-73
2021/04/19 10:32:53;;;;;;;2.53;2.10;;;14.00;97.40;;;;;;5073002;28;20449;-74
2021/04/19 10:35:31;;;;;;;1.60;1.40;;;13.60;98.00;;;;;;5070625;28;20462;-72
2021/04/19 10:38:00;;;;;;;3.30;1.97;;;13.30;98.00;;;;;;5073301;28;20449;-73
2021/04/19 10:40:27;;;;;;;4.13;3.27;;;12.90;98.00;;;;;;5071401;28;20487;-71
2021/04/19 10:42:54;;;;;;;3.70;2.30;;;12.80;98.00;;;;;;5073375;28;20449;-71
2021/04/19 10:45:21;;;;;;;2.37;1.57;;;12.60;98.00;;;;;;5070637;28;20883;-73
2021/04/19 10:47:48;;;;;;;2.30;1.77;;;12.50;98.00;;;;;;5072889;28;20468;-72
2021/04/19 10:50:15;;;;;;;1.97;1.80;;;12.30;98.00;;;;;;5070080;28;20460;-71
2021/04/19 10:52:54;;;;;;;3.73;1.77;;;12.30;98.00;;;;;;5072745;28;20470;-73
2021/04/19 10:55:22;;;;;;;2.23;1.53;;;12.20;98.00;;;;;;5070233;28;20491;-70
2021/04/19 10:57:49;;;;;;;1.70;1.40;;;12.10;98.00;;;;;;5072550;28;20509;-70
2021/04/19 11:00:17;;;;;;;2.37;1.77;;;11.80;98.00;;;;;;5069813;28;20524;-71
2021/04/19 11:02:44;;;;;;;1.40;1.33;;;11.70;98.00;;;;;;5072336;28;20835;-70
2021/04/19 11:05:15;;;;;;;3.10;1.80;;;11.30;98.00;;;;;;5069753;28;20455;-70
2021/04/19 11:07:45;;;;;;;1.40;1.40;;;11.00;98.00;;;;;;5072365;28;20499;-70
2021/04/19 11:10:24;;;;;;;2.87;1.90;;;11.00;98.00;;;;;;5069955;28;20477;-71
2021/04/19 11:12:59;;;;;;;2.40;1.93;;;11.00;98.00;;;;;;5071885;28;20463;-71
2021/04/19 11:15:46;;;;;;;3.03;2.03;;;11.10;98.00;;;;;;5069638;28;20537;-71
2021/04/19 11:18:18;;;;;;;2.47;2.20;;;11.30;98.00;;;;;;5069181;28;20460;-71
2021/04/19 11:20:45;;;;;;;5.27;2.23;;;11.30;98.00;;;;;;5072092;28;20492;-71
2021/04/19 11:23:22;;;;;;;1.83;1.50;;;11.40;98.00;;;;;;5069073;28;20465;-71
2021/04/19 11:25:51;;;;;;;2.43;1.87;;;11.60;98.00;;;;;;5071979;28;20464;-70
2021/04/19 11:28:20;;;;;;;1.30;1.20;;;11.80;98.00;;;;;;5069101;28;20513;-71
2021/04/19 11:30:48;;;;;;;5.37;2.70;;;11.80;98.00;;;;;;5072016;28;20938;-70
2021/04/19 11:33:19;;;;;;;1.50;1.20;;;11.80;98.00;;;;;;5069110;28;20452;-71
2021/04/19 11:35:47;;;;;;;3.37;1.77;;;12.00;98.00;;;;;;5071874;28;20454;-70
2021/04/19 11:38:16;;;;;;;1.27;1.07;;;12.20;98.00;;;;;;5069484;28;20470;-70
2021/04/19 11:40:45;;;;;;;2.37;2.00;;;12.20;98.00;;;;;;5070195;28;20484;-70
2021/04/19 11:43:18;;;;;;;2.30;1.30;;;12.00;98.00;;;;;;5069138;28;20454;-72
2021/04/19 11:45:44;;;;;;;1.63;1.63;;;11.80;98.00;;;;;;5071661;28;20864;-72
2021/04/19 11:48:12;;;;;;;3.60;2.23;;;11.50;98.00;;;;;;5069808;28;20609;-71
2021/04/19 11:50:39;;;;;;;1.23;1.23;;;11.30;98.00;;;;;;5069177;28;20476;-70
2021/04/19 11:53:05;;;;;;;4.53;2.20;;;11.30;98.00;;;;;;5071153;28;20464;-71
2021/04/19 11:55:32;;;;;;;1.77;1.67;;;11.50;98.00;;;;;;5067580;28;20990;-72
2021/04/19 11:57:59;;;;;;;3.10;1.70;;;11.40;98.00;;;;;;5071465;28;20927;-71
2021/04/19 12:00:27;;;;;;;1.53;1.50;;;11.30;98.00;;;;;;5067122;28;20481;-72
2021/04/19 12:02:55;;;;;;;1.60;1.50;;;11.30;98.00;;;;;;5070988;28;20486;-71
2021/04/19 12:05:21;;;;;;;3.10;1.97;;;11.40;98.00;;;;;;5068486;28;20456;-73
2021/04/19 12:07:48;;;;;;;2.13;1.60;;;11.50;98.00;;;;;;5071023;28;20841;-73
2021/04/19 12:10:15;;;;;;;1.93;1.47;;;11.50;98.00;;;;;;5068550;28;20453;-73
2021/04/19 12:12:41;;;;;;;3.07;2.13;;;11.70;98.00;;;;;;5071738;28;20452;-74
2021/04/19 12:15:09;;;;;;;1.87;1.60;;;11.90;98.00;;;;;;5068787;28;20879;-73
2021/04/19 12:17:36;;;;;;;1.77;1.57;;;12.10;98.00;;;;;;5071132;28;20950;-70
2021/04/19 12:20:04;;;;;;;2.30;2.10;;;12.20;98.00;;;;;;5066998;28;20513;-71
2021/04/19 12:22:30;;;;;;;1.47;1.27;;;12.20;98.00;;;;;;5070987;28;20463;-69
2021/04/19 12:24:57;;;;;;;1.40;1.20;;;12.10;98.00;;;;;;5068563;28;20971;-71
2021/04/19 12:27:23;;;;;;;4.70;2.17;;;12.30;98.00;;;;;;5071343;28;20513;-71
2021/04/19 12:29:50;;;;;;;1.60;1.50;;;12.40;98.00;;;;;;5068097;28;20459;-71
2021/04/19 12:32:17;;;;;;;1.80;1.40;;;12.40;98.00;;;;;;5070600;28;20462;-71
2021/04/19 12:34:46;;;;;;;2.67;1.73;;;12.40;98.00;;;;;;5068405;28;20564;-70
2021/04/19 12:37:13;;;;;;;1.67;1.67;;;12.40;98.00;;;;;;5070963;28;20460;-71
2021/04/19 12:39:40;;;;;;;2.50;1.97;;;12.40;98.00;;;;;;5066640;28;20487;-69
2021/04/19 12:42:07;;;;;;;1.73;1.50;;;12.40;98.00;;;;;;5071255;28;20460;-70
2021/04/19 12:44:33;;;;;;;2.33;1.87;;;12.30;98.00;;;;;;5068375;28;20459;-71
2021/04/19 12:47:00;;;;;;;1.40;1.20;;;12.30;98.00;;;;;;5053397;28;20463;-71
2021/04/19 12:49:26;;;;;;;2.53;1.63;;;12.40;98.00;;;;;;5067996;28;20451;-71
2021/04/19 12:51:54;;;;;;;2.17;1.80;;;12.50;98.00;;;;;;5070961;28;20456;-70
2021/04/19 12:54:21;;;;;;;2.37;1.73;;;12.60;98.00;;;;;;5067179;28;20459;-71
2021/04/19 12:56:48;;;;;;;1.80;1.57;;;12.70;98.00;;;;;;5071076;28;20462;-71
2021/04/19 12:59:14;;;;;;;3.80;2.00;;;12.70;98.00;;;;;;5068348;28;20473;-71
2021/04/19 13:01:47;;;;;;;2.20;2.00;;;12.70;98.00;;;;;;5071647;28;20458;-71
2021/04/19 13:04:16;;;;;;;1.57;1.50;;;12.80;98.00;;;;;;5072632;28;20455;-71
2021/04/19 13:06:43;;;;;;;2.53;1.97;;;13.00;98.00;;;;;;5075506;28;20458;-71
2021/04/19 13:09:10;;;;;;;3.90;2.03;;;13.10;98.00;;;;;;5072753;28;20494;-71